sensor_id;sensor_type;location;lat;lon;timestamp;temperature;humidity
26254;DHT22;53339;51.378;0.094;2024-02-26T00:00:14;6.60;91.70
26254;DHT22;53339;51.378;0.094;2024-02-26T00:02:43;6.60;91.70
26254;DHT22;53339;51.378;0.094;2024-02-26T00:05:11;6.60;91.70
26254;DHT22;53339;51.378;0.094;2024-02-26T00:07:39;6.60;91.70
26254;DHT22;53339;51.378;0.094;2024-02-26T00:10:07;6.60;91.70
26254;DHT22;53339;51.378;0.094;2024-02-26T00:12:36;6.60;91.70
26254;DHT22;53339;51.378;0.094;2024-02-26T00:15:05;6.60;91.70
26254;DHT22;53339;51.378;0.094;2024-02-26T00:17:33;6.60;91.70
26254;DHT22;53339;51.378;0.094;2024-02-26T00:20:04;6.60;91.70
26254;DHT22;53339;51.378;0.094;2024-02-26T00:22:36;6.50;91.70
26254;DHT22;53339;51.378;0.094;2024-02-26T00:25:04;6.60;91.70
26254;DHT22;53339;51.378;0.094;2024-02-26T00:27:32;6.50;91.70
26254;DHT22;53339;51.378;0.094;2024-02-26T00:30:00;6.50;91.70
26254;DHT22;53339;51.378;0.094;2024-02-26T00:32:27;6.50;91.70
26254;DHT22;53339;51.378;0.094;2024-02-26T00:34:55;6.50;91.60
26254;DHT22;53339;51.378;0.094;2024-02-26T00:37:23;6.50;91.70
26254;DHT22;53339;51.378;0.094;2024-02-26T00:39:50;6.50;91.60
26254;DHT22;53339;51.378;0.094;2024-02-26T00:42:20;6.50;91.60
26254;DHT22;53339;51.378;0.094;2024-02-26T00:44:48;6.50;91.70
26254;DHT22;53339;51.378;0.094;2024-02-26T00:47:15;6.40;91.60
26254;DHT22;53339;51.378;0.094;2024-02-26T00:49:43;6.50;91.60
26254;DHT22;53339;51.378;0.094;2024-02-26T00:52:11;6.50;91.60
26254;DHT22;53339;51.378;0.094;2024-02-26T00:54:38;6.50;91.60
26254;DHT22;53339;51.378;0.094;2024-02-26T00:57:06;6.40;91.60
26254;DHT22;53339;51.378;0.094;2024-02-26T00:59:34;6.40;91.60
26254;DHT22;53339;51.378;0.094;2024-02-26T01:02:02;6.40;91.60
26254;DHT22;53339;51.378;0.094;2024-02-26T01:04:29;6.40;91.60
26254;DHT22;53339;51.378;0.094;2024-02-26T01:06:57;6.40;91.60
26254;DHT22;53339;51.378;0.094;2024-02-26T01:09:25;6.40;91.60
26254;DHT22;53339;51.378;0.094;2024-02-26T01:11:52;6.40;91.60
26254;DHT22;53339;51.378;0.094;2024-02-26T01:14:20;6.40;91.60
26254;DHT22;53339;51.378;0.094;2024-02-26T01:16:48;6.40;91.50
26254;DHT22;53339;51.378;0.094;2024-02-26T01:19:15;6.40;91.50
26254;DHT22;53339;51.378;0.094;2024-02-26T01:21:43;6.40;91.50
26254;DHT22;53339;51.378;0.094;2024-02-26T01:24:10;6.40;91.50
26254;DHT22;53339;51.378;0.094;2024-02-26T01:26:41;6.40;91.50
26254;DHT22;53339;51.378;0.094;2024-02-26T01:29:08;6.30;91.50
26254;DHT22;53339;51.378;0.094;2024-02-26T01:31:36;6.40;91.50
26254;DHT22;53339;51.378;0.094;2024-02-26T01:34:03;6.30;91.50
26254;DHT22;53339;51.378;0.094;2024-02-26T01:36:31;6.30;91.50
26254;DHT22;53339;51.378;0.094;2024-02-26T01:38:59;6.30;91.50
26254;DHT22;53339;51.378;0.094;2024-02-26T01:41:26;6.30;91.50
26254;DHT22;53339;51.378;0.094;2024-02-26T01:43:54;6.30;91.50
26254;DHT22;53339;51.378;0.094;2024-02-26T01:46:22;6.30;91.50
26254;DHT22;53339;51.378;0.094;2024-02-26T01:48:50;6.30;91.50
26254;DHT22;53339;51.378;0.094;2024-02-26T01:51:18;6.30;91.40
26254;DHT22;53339;51.378;0.094;2024-02-26T01:53:45;6.30;91.50
26254;DHT22;53339;51.378;0.094;2024-02-26T01:56:15;6.30;91.50
26254;DHT22;53339;51.378;0.094;2024-02-26T01:58:43;6.30;91.40
26254;DHT22;53339;51.378;0.094;2024-02-26T02:01:12;6.30;91.40
26254;DHT22;53339;51.378;0.094;2024-02-26T02:03:40;6.30;91.40
26254;DHT22;53339;51.378;0.094;2024-02-26T02:06:09;6.30;91.40
26254;DHT22;53339;51.378;0.094;2024-02-26T02:08:37;6.30;91.40
26254;DHT22;53339;51.378;0.094;2024-02-26T02:11:06;6.30;91.40
26254;DHT22;53339;51.378;0.094;2024-02-26T02:13:34;6.20;91.30
26254;DHT22;53339;51.378;0.094;2024-02-26T02:16:02;6.20;91.30
26254;DHT22;53339;51.378;0.094;2024-02-26T02:18:29;6.20;91.30
26254;DHT22;53339;51.378;0.094;2024-02-26T02:21:00;6.20;91.30
26254;DHT22;53339;51.378;0.094;2024-02-26T02:23:28;6.20;91.30
26254;DHT22;53339;51.378;0.094;2024-02-26T02:25:56;6.20;91.30
26254;DHT22;53339;51.378;0.094;2024-02-26T02:28:26;6.30;91.30
26254;DHT22;53339;51.378;0.094;2024-02-26T02:30:55;6.30;91.30
26254;DHT22;53339;51.378;0.094;2024-02-26T02:33:25;6.20;91.20
26254;DHT22;53339;51.378;0.094;2024-02-26T02:35:53;6.20;91.20
26254;DHT22;53339;51.378;0.094;2024-02-26T02:38:22;6.20;91.20
26254;DHT22;53339;51.378;0.094;2024-02-26T02:40:51;6.20;91.20
26254;DHT22;53339;51.378;0.094;2024-02-26T02:43:19;6.20;91.10
26254;DHT22;53339;51.378;0.094;2024-02-26T02:45:46;6.20;91.10
26254;DHT22;53339;51.378;0.094;2024-02-26T02:48:14;6.20;91.20
26254;DHT22;53339;51.378;0.094;2024-02-26T02:50:42;6.30;91.20
26254;DHT22;53339;51.378;0.094;2024-02-26T02:53:09;6.20;91.10
26254;DHT22;53339;51.378;0.094;2024-02-26T02:55:37;6.20;91.10
26254;DHT22;53339;51.378;0.094;2024-02-26T02:58:05;6.20;91.10
26254;DHT22;53339;51.378;0.094;2024-02-26T03:00:32;6.30;91.10
26254;DHT22;53339;51.378;0.094;2024-02-26T03:03:00;6.30;91.10
26254;DHT22;53339;51.378;0.094;2024-02-26T03:05:28;6.20;91.00
26254;DHT22;53339;51.378;0.094;2024-02-26T03:07:55;6.30;91.10
26254;DHT22;53339;51.378;0.094;2024-02-26T03:10:23;6.30;91.20
26254;DHT22;53339;51.378;0.094;2024-02-26T03:12:51;6.40;91.00
26254;DHT22;53339;51.378;0.094;2024-02-26T03:15:18;6.30;90.90
26254;DHT22;53339;51.378;0.094;2024-02-26T03:17:46;6.40;91.00
26254;DHT22;53339;51.378;0.094;2024-02-26T03:20:14;6.40;91.00
26254;DHT22;53339;51.378;0.094;2024-02-26T03:22:41;6.40;90.90
26254;DHT22;53339;51.378;0.094;2024-02-26T03:25:09;6.40;90.70
26254;DHT22;53339;51.378;0.094;2024-02-26T03:27:37;6.40;90.70
26254;DHT22;53339;51.378;0.094;2024-02-26T03:30:05;6.50;90.60
26254;DHT22;53339;51.378;0.094;2024-02-26T03:32:33;6.50;90.60
26254;DHT22;53339;51.378;0.094;2024-02-26T03:35:00;6.50;90.40
26254;DHT22;53339;51.378;0.094;2024-02-26T03:37:28;6.50;90.40
26254;DHT22;53339;51.378;0.094;2024-02-26T03:39:55;6.40;90.40
26254;DHT22;53339;51.378;0.094;2024-02-26T03:42:24;6.50;90.30
26254;DHT22;53339;51.378;0.094;2024-02-26T03:44:52;6.50;90.20
26254;DHT22;53339;51.378;0.094;2024-02-26T03:47:19;6.50;90.20
26254;DHT22;53339;51.378;0.094;2024-02-26T03:49:47;6.50;90.10
26254;DHT22;53339;51.378;0.094;2024-02-26T03:52:15;6.50;90.10
26254;DHT22;53339;51.378;0.094;2024-02-26T03:54:43;6.40;90.00
26254;DHT22;53339;51.378;0.094;2024-02-26T03:57:11;6.50;89.90
26254;DHT22;53339;51.378;0.094;2024-02-26T03:59:38;6.50;89.70
26254;DHT22;53339;51.378;0.094;2024-02-26T04:02:07;6.50;89.70
26254;DHT22;53339;51.378;0.094;2024-02-26T04:04:34;6.50;89.50
26254;DHT22;53339;51.378;0.094;2024-02-26T04:07:02;6.40;89.40
26254;DHT22;53339;51.378;0.094;2024-02-26T04:09:33;6.40;89.40
26254;DHT22;53339;51.378;0.094;2024-02-26T04:12:01;6.40;89.50
26254;DHT22;53339;51.378;0.094;2024-02-26T04:14:29;6.40;89.30
26254;DHT22;53339;51.378;0.094;2024-02-26T04:16:56;6.40;89.30
26254;DHT22;53339;51.378;0.094;2024-02-26T04:19:24;6.40;89.30
26254;DHT22;53339;51.378;0.094;2024-02-26T04:21:51;6.40;89.30
26254;DHT22;53339;51.378;0.094;2024-02-26T04:24:19;6.40;89.10
26254;DHT22;53339;51.378;0.094;2024-02-26T04:26:47;6.40;89.00
26254;DHT22;53339;51.378;0.094;2024-02-26T04:29:15;6.40;89.00
26254;DHT22;53339;51.378;0.094;2024-02-26T04:31:42;6.40;89.00
26254;DHT22;53339;51.378;0.094;2024-02-26T04:34:10;6.40;88.90
26254;DHT22;53339;51.378;0.094;2024-02-26T04:36:40;6.40;88.70
26254;DHT22;53339;51.378;0.094;2024-02-26T04:39:08;6.40;88.70
26254;DHT22;53339;51.378;0.094;2024-02-26T04:41:36;6.40;88.80
26254;DHT22;53339;51.378;0.094;2024-02-26T04:44:04;6.40;88.60
26254;DHT22;53339;51.378;0.094;2024-02-26T04:46:31;6.40;88.40
26254;DHT22;53339;51.378;0.094;2024-02-26T04:48:59;6.40;88.50
26254;DHT22;53339;51.378;0.094;2024-02-26T04:51:27;6.40;88.40
26254;DHT22;53339;51.378;0.094;2024-02-26T04:53:54;6.40;88.40
26254;DHT22;53339;51.378;0.094;2024-02-26T04:56:22;6.40;88.10
26254;DHT22;53339;51.378;0.094;2024-02-26T04:58:49;6.40;88.10
26254;DHT22;53339;51.378;0.094;2024-02-26T05:01:17;6.40;88.20
26254;DHT22;53339;51.378;0.094;2024-02-26T05:03:46;6.40;88.20
26254;DHT22;53339;51.378;0.094;2024-02-26T05:06:13;6.40;88.10
26254;DHT22;53339;51.378;0.094;2024-02-26T05:08:41;6.40;87.90
26254;DHT22;53339;51.378;0.094;2024-02-26T05:11:09;6.40;88.00
26254;DHT22;53339;51.378;0.094;2024-02-26T05:13:36;6.40;88.20
26254;DHT22;53339;51.378;0.094;2024-02-26T05:16:04;6.40;88.00
26254;DHT22;53339;51.378;0.094;2024-02-26T05:18:32;6.40;88.00
26254;DHT22;53339;51.378;0.094;2024-02-26T05:21:00;6.40;88.10
26254;DHT22;53339;51.378;0.094;2024-02-26T05:23:27;6.40;88.10
26254;DHT22;53339;51.378;0.094;2024-02-26T05:25:55;6.40;87.80
26254;DHT22;53339;51.378;0.094;2024-02-26T05:28:22;6.30;87.80
26254;DHT22;53339;51.378;0.094;2024-02-26T05:30:50;6.30;87.90
26254;DHT22;53339;51.378;0.094;2024-02-26T05:33:18;6.40;88.00
26254;DHT22;53339;51.378;0.094;2024-02-26T05:35:46;6.40;87.90
26254;DHT22;53339;51.378;0.094;2024-02-26T05:38:13;6.30;87.80
26254;DHT22;53339;51.378;0.094;2024-02-26T05:40:41;6.30;87.70
26254;DHT22;53339;51.378;0.094;2024-02-26T05:43:08;6.30;87.90
26254;DHT22;53339;51.378;0.094;2024-02-26T05:45:36;6.30;87.90
26254;DHT22;53339;51.378;0.094;2024-02-26T05:48:04;6.30;87.60
26254;DHT22;53339;51.378;0.094;2024-02-26T05:50:32;6.30;87.70
26254;DHT22;53339;51.378;0.094;2024-02-26T05:52:59;6.30;87.60
26254;DHT22;53339;51.378;0.094;2024-02-26T05:55:27;6.30;87.60
26254;DHT22;53339;51.378;0.094;2024-02-26T05:57:55;6.30;87.40
26254;DHT22;53339;51.378;0.094;2024-02-26T06:00:22;6.30;87.40
26254;DHT22;53339;51.378;0.094;2024-02-26T06:02:50;6.30;87.50
26254;DHT22;53339;51.378;0.094;2024-02-26T06:05:17;6.30;87.50
26254;DHT22;53339;51.378;0.094;2024-02-26T06:07:45;6.30;87.20
26254;DHT22;53339;51.378;0.094;2024-02-26T06:10:13;6.20;87.10
26254;DHT22;53339;51.378;0.094;2024-02-26T06:12:44;6.20;87.00
26254;DHT22;53339;51.378;0.094;2024-02-26T06:15:12;6.20;87.00
26254;DHT22;53339;51.378;0.094;2024-02-26T06:17:39;6.20;86.80
26254;DHT22;53339;51.378;0.094;2024-02-26T06:20:08;6.10;86.70
26254;DHT22;53339;51.378;0.094;2024-02-26T06:22:41;6.10;86.80
26254;DHT22;53339;51.378;0.094;2024-02-26T06:25:08;6.10;86.80
26254;DHT22;53339;51.378;0.094;2024-02-26T06:27:36;6.10;86.50
26254;DHT22;53339;51.378;0.094;2024-02-26T06:30:04;6.10;86.50
26254;DHT22;53339;51.378;0.094;2024-02-26T06:32:32;6.10;86.30
26254;DHT22;53339;51.378;0.094;2024-02-26T06:35:00;6.10;86.50
26254;DHT22;53339;51.378;0.094;2024-02-26T06:37:28;6.10;86.20
26254;DHT22;53339;51.378;0.094;2024-02-26T06:39:56;6.00;86.10
26254;DHT22;53339;51.378;0.094;2024-02-26T06:42:24;6.00;86.20
26254;DHT22;53339;51.378;0.094;2024-02-26T06:44:51;6.00;86.10
26254;DHT22;53339;51.378;0.094;2024-02-26T06:47:19;6.00;85.80
26254;DHT22;53339;51.378;0.094;2024-02-26T06:49:47;6.00;85.60
26254;DHT22;53339;51.378;0.094;2024-02-26T06:52:15;6.00;85.70
26254;DHT22;53339;51.378;0.094;2024-02-26T06:54:43;5.90;85.60
26254;DHT22;53339;51.378;0.094;2024-02-26T06:57:10;6.00;85.60
26254;DHT22;53339;51.378;0.094;2024-02-26T06:59:38;5.90;85.30
26254;DHT22;53339;51.378;0.094;2024-02-26T07:02:05;5.90;85.40
26254;DHT22;53339;51.378;0.094;2024-02-26T07:04:33;5.90;85.30
26254;DHT22;53339;51.378;0.094;2024-02-26T07:07:01;5.90;85.30
26254;DHT22;53339;51.378;0.094;2024-02-26T07:09:29;5.80;84.70
26254;DHT22;53339;51.378;0.094;2024-02-26T07:11:56;5.80;84.70
26254;DHT22;53339;51.378;0.094;2024-02-26T07:14:27;5.80;84.80
26254;DHT22;53339;51.378;0.094;2024-02-26T07:16:59;5.80;84.90
26254;DHT22;53339;51.378;0.094;2024-02-26T07:19:30;5.80;84.40
26254;DHT22;53339;51.378;0.094;2024-02-26T07:21:58;5.70;84.70
26254;DHT22;53339;51.378;0.094;2024-02-26T07:24:25;5.70;84.90
26254;DHT22;53339;51.378;0.094;2024-02-26T07:26:53;5.80;84.90
26254;DHT22;53339;51.378;0.094;2024-02-26T07:29:22;5.70;84.70
26254;DHT22;53339;51.378;0.094;2024-02-26T07:31:51;5.70;84.30
26254;DHT22;53339;51.378;0.094;2024-02-26T07:34:18;5.70;84.30
26254;DHT22;53339;51.378;0.094;2024-02-26T07:36:46;5.70;84.60
26254;DHT22;53339;51.378;0.094;2024-02-26T07:39:16;5.80;84.30
26254;DHT22;53339;51.378;0.094;2024-02-26T07:41:47;5.70;84.20
26254;DHT22;53339;51.378;0.094;2024-02-26T07:44:17;5.70;84.20
26254;DHT22;53339;51.378;0.094;2024-02-26T07:46:47;5.80;84.30
26254;DHT22;53339;51.378;0.094;2024-02-26T07:49:14;5.90;84.20
26254;DHT22;53339;51.378;0.094;2024-02-26T07:51:42;5.80;83.90
26254;DHT22;53339;51.378;0.094;2024-02-26T07:54:10;5.80;83.90
26254;DHT22;53339;51.378;0.094;2024-02-26T07:56:37;5.90;84.00
26254;DHT22;53339;51.378;0.094;2024-02-26T07:59:08;5.90;83.80
26254;DHT22;53339;51.378;0.094;2024-02-26T08:01:37;5.90;83.70
26254;DHT22;53339;51.378;0.094;2024-02-26T08:04:06;5.90;83.90
26254;DHT22;53339;51.378;0.094;2024-02-26T08:06:34;5.90;84.00
26254;DHT22;53339;51.378;0.094;2024-02-26T08:09:04;5.90;83.70
26254;DHT22;53339;51.378;0.094;2024-02-26T08:11:32;6.00;83.60
26254;DHT22;53339;51.378;0.094;2024-02-26T08:14:00;5.90;83.60
26254;DHT22;53339;51.378;0.094;2024-02-26T08:16:27;6.00;83.60
26254;DHT22;53339;51.378;0.094;2024-02-26T08:18:55;6.00;83.50
26254;DHT22;53339;51.378;0.094;2024-02-26T08:21:23;6.00;82.80
26254;DHT22;53339;51.378;0.094;2024-02-26T08:23:51;6.00;82.70
26254;DHT22;53339;51.378;0.094;2024-02-26T08:26:18;6.00;82.70
26254;DHT22;53339;51.378;0.094;2024-02-26T08:28:48;6.10;82.80
26254;DHT22;53339;51.378;0.094;2024-02-26T08:31:16;6.00;82.40
26254;DHT22;53339;51.378;0.094;2024-02-26T08:33:44;6.10;82.30
26254;DHT22;53339;51.378;0.094;2024-02-26T08:36:12;6.10;82.20
26254;DHT22;53339;51.378;0.094;2024-02-26T08:38:40;6.10;82.10
26254;DHT22;53339;51.378;0.094;2024-02-26T08:41:08;6.10;81.50
26254;DHT22;53339;51.378;0.094;2024-02-26T08:43:35;6.10;81.70
26254;DHT22;53339;51.378;0.094;2024-02-26T08:46:03;6.10;81.70
26254;DHT22;53339;51.378;0.094;2024-02-26T08:48:31;6.10;81.30
26254;DHT22;53339;51.378;0.094;2024-02-26T08:50:58;6.20;81.20
26254;DHT22;53339;51.378;0.094;2024-02-26T08:53:26;6.10;81.20
26254;DHT22;53339;51.378;0.094;2024-02-26T08:55:58;6.10;81.40
26254;DHT22;53339;51.378;0.094;2024-02-26T08:58:27;6.20;81.00
26254;DHT22;53339;51.378;0.094;2024-02-26T09:00:55;6.20;80.90
26254;DHT22;53339;51.378;0.094;2024-02-26T09:03:23;6.20;80.70
26254;DHT22;53339;51.378;0.094;2024-02-26T09:05:51;6.20;80.90
26254;DHT22;53339;51.378;0.094;2024-02-26T09:08:18;6.20;81.40
26254;DHT22;53339;51.378;0.094;2024-02-26T09:10:50;6.30;81.20
26254;DHT22;53339;51.378;0.094;2024-02-26T09:13:17;6.10;81.30
26254;DHT22;53339;51.378;0.094;2024-02-26T09:15:46;6.20;81.70
26254;DHT22;53339;51.378;0.094;2024-02-26T09:18:13;6.20;82.00
26254;DHT22;53339;51.378;0.094;2024-02-26T09:20:42;6.20;82.00
26254;DHT22;53339;51.378;0.094;2024-02-26T09:23:10;6.20;81.60
26254;DHT22;53339;51.378;0.094;2024-02-26T09:25:37;6.20;82.00
26254;DHT22;53339;51.378;0.094;2024-02-26T09:28:08;6.20;82.10
26254;DHT22;53339;51.378;0.094;2024-02-26T09:30:35;6.20;82.00
26254;DHT22;53339;51.378;0.094;2024-02-26T09:33:03;6.20;82.00
26254;DHT22;53339;51.378;0.094;2024-02-26T09:35:31;6.20;82.40
26254;DHT22;53339;51.378;0.094;2024-02-26T09:37:59;6.30;82.60
26254;DHT22;53339;51.378;0.094;2024-02-26T09:40:27;6.30;82.10
26254;DHT22;53339;51.378;0.094;2024-02-26T09:43:00;6.30;81.50
26254;DHT22;53339;51.378;0.094;2024-02-26T09:45:30;6.30;81.60
26254;DHT22;53339;51.378;0.094;2024-02-26T09:48:01;6.40;81.70
26254;DHT22;53339;51.378;0.094;2024-02-26T09:50:31;6.40;81.90
26254;DHT22;53339;51.378;0.094;2024-02-26T09:52:59;6.40;81.10
26254;DHT22;53339;51.378;0.094;2024-02-26T09:55:30;6.40;81.50
26254;DHT22;53339;51.378;0.094;2024-02-26T09:57:57;6.50;81.60
26254;DHT22;53339;51.378;0.094;2024-02-26T10:00:27;6.60;81.60
26254;DHT22;53339;51.378;0.094;2024-02-26T10:03:05;6.50;80.70
26254;DHT22;53339;51.378;0.094;2024-02-26T10:05:34;6.40;80.80
26254;DHT22;53339;51.378;0.094;2024-02-26T10:08:04;6.30;80.60
26254;DHT22;53339;51.378;0.094;2024-02-26T10:10:32;6.30;81.20
26254;DHT22;53339;51.378;0.094;2024-02-26T10:13:00;6.40;81.60
26254;DHT22;53339;51.378;0.094;2024-02-26T10:15:28;6.40;81.00
26254;DHT22;53339;51.378;0.094;2024-02-26T10:17:56;6.40;81.00
26254;DHT22;53339;51.378;0.094;2024-02-26T10:20:24;6.40;81.60
26254;DHT22;53339;51.378;0.094;2024-02-26T10:22:53;6.40;81.40
26254;DHT22;53339;51.378;0.094;2024-02-26T10:25:21;6.50;80.70
26254;DHT22;53339;51.378;0.094;2024-02-26T10:27:49;6.50;80.50
26254;DHT22;53339;51.378;0.094;2024-02-26T10:30:21;6.50;80.80
26254;DHT22;53339;51.378;0.094;2024-02-26T10:32:50;6.60;80.30
26254;DHT22;53339;51.378;0.094;2024-02-26T10:35:19;6.60;80.20
26254;DHT22;53339;51.378;0.094;2024-02-26T10:37:50;6.60;79.80
26254;DHT22;53339;51.378;0.094;2024-02-26T10:40:18;6.70;79.90
26254;DHT22;53339;51.378;0.094;2024-02-26T10:42:46;6.70;79.50
26254;DHT22;53339;51.378;0.094;2024-02-26T10:45:14;6.80;79.30
26254;DHT22;53339;51.378;0.094;2024-02-26T10:47:42;6.70;79.30
26254;DHT22;53339;51.378;0.094;2024-02-26T10:50:13;6.70;78.90
26254;DHT22;53339;51.378;0.094;2024-02-26T10:52:42;6.70;79.20
26254;DHT22;53339;51.378;0.094;2024-02-26T10:55:16;6.70;79.40
26254;DHT22;53339;51.378;0.094;2024-02-26T10:57:48;6.60;79.60
26254;DHT22;53339;51.378;0.094;2024-02-26T11:00:16;6.60;80.20
26254;DHT22;53339;51.378;0.094;2024-02-26T11:02:45;6.60;80.50
26254;DHT22;53339;51.378;0.094;2024-02-26T11:05:17;6.60;80.30
26254;DHT22;53339;51.378;0.094;2024-02-26T11:07:45;6.60;80.20
26254;DHT22;53339;51.378;0.094;2024-02-26T11:10:18;6.60;80.10
26254;DHT22;53339;51.378;0.094;2024-02-26T11:12:46;6.70;80.50
26254;DHT22;53339;51.378;0.094;2024-02-26T11:15:14;6.70;80.30
26254;DHT22;53339;51.378;0.094;2024-02-26T11:17:43;6.70;79.90
26254;DHT22;53339;51.378;0.094;2024-02-26T11:20:12;6.60;80.00
26254;DHT22;53339;51.378;0.094;2024-02-26T11:22:41;6.70;79.80
26254;DHT22;53339;51.378;0.094;2024-02-26T11:25:09;6.70;79.80
26254;DHT22;53339;51.378;0.094;2024-02-26T11:27:48;6.70;79.40
26254;DHT22;53339;51.378;0.094;2024-02-26T11:30:17;6.70;79.60
26254;DHT22;53339;51.378;0.094;2024-02-26T11:32:47;6.70;79.90
26254;DHT22;53339;51.378;0.094;2024-02-26T11:35:16;6.80;79.70
26254;DHT22;53339;51.378;0.094;2024-02-26T11:37:55;6.80;79.00
26254;DHT22;53339;51.378;0.094;2024-02-26T11:40:24;6.80;79.40
26254;DHT22;53339;51.378;0.094;2024-02-26T11:42:55;6.90;79.90
26254;DHT22;53339;51.378;0.094;2024-02-26T11:48:15;6.90;77.90
26254;DHT22;53339;51.378;0.094;2024-02-26T11:50:52;6.90;78.30
26254;DHT22;53339;51.378;0.094;2024-02-26T11:55:48;7.00;77.90
26254;DHT22;53339;51.378;0.094;2024-02-26T11:58:41;7.00;77.90
26254;DHT22;53339;51.378;0.094;2024-02-26T12:01:41;6.90;77.90
26254;DHT22;53339;51.378;0.094;2024-02-26T12:04:24;6.90;77.20
26254;DHT22;53339;51.378;0.094;2024-02-26T12:06:58;6.90;77.50
26254;DHT22;53339;51.378;0.094;2024-02-26T12:09:34;6.90;77.20
26254;DHT22;53339;51.378;0.094;2024-02-26T12:12:04;6.80;77.40
26254;DHT22;53339;51.378;0.094;2024-02-26T12:14:59;6.90;77.20
26254;DHT22;53339;51.378;0.094;2024-02-26T12:17:26;6.90;76.80
26254;DHT22;53339;51.378;0.094;2024-02-26T12:19:55;6.90;76.80
26254;DHT22;53339;51.378;0.094;2024-02-26T12:22:35;6.90;77.30
26254;DHT22;53339;51.378;0.094;2024-02-26T12:25:04;6.90;77.20
26254;DHT22;53339;51.378;0.094;2024-02-26T12:27:36;6.90;77.10
26254;DHT22;53339;51.378;0.094;2024-02-26T12:30:04;6.90;76.40
26254;DHT22;53339;51.378;0.094;2024-02-26T12:32:32;6.90;77.00
26254;DHT22;53339;51.378;0.094;2024-02-26T12:34:59;6.90;77.20
26254;DHT22;53339;51.378;0.094;2024-02-26T12:37:28;6.90;77.10
26254;DHT22;53339;51.378;0.094;2024-02-26T12:39:56;6.90;77.10
26254;DHT22;53339;51.378;0.094;2024-02-26T12:42:23;6.80;77.60
26254;DHT22;53339;51.378;0.094;2024-02-26T12:44:52;7.00;77.30
26254;DHT22;53339;51.378;0.094;2024-02-26T12:47:20;7.10;76.80
26254;DHT22;53339;51.378;0.094;2024-02-26T12:49:48;7.10;76.40
26254;DHT22;53339;51.378;0.094;2024-02-26T12:52:17;7.00;77.00
26254;DHT22;53339;51.378;0.094;2024-02-26T12:54:44;7.00;77.40
26254;DHT22;53339;51.378;0.094;2024-02-26T12:57:12;7.00;77.50
26254;DHT22;53339;51.378;0.094;2024-02-26T12:59:43;6.90;77.70
26254;DHT22;53339;51.378;0.094;2024-02-26T13:02:12;6.80;78.20
26254;DHT22;53339;51.378;0.094;2024-02-26T13:04:40;6.90;79.00
26254;DHT22;53339;51.378;0.094;2024-02-26T13:07:08;6.80;79.30
26254;DHT22;53339;51.378;0.094;2024-02-26T13:09:36;6.80;79.10
26254;DHT22;53339;51.378;0.094;2024-02-26T13:12:06;6.80;79.40
26254;DHT22;53339;51.378;0.094;2024-02-26T13:14:34;6.90;80.30
26254;DHT22;53339;51.378;0.094;2024-02-26T13:17:03;7.00;80.20
26254;DHT22;53339;51.378;0.094;2024-02-26T13:19:30;7.10;79.80
26254;DHT22;53339;51.378;0.094;2024-02-26T13:22:06;7.10;79.20
26254;DHT22;53339;51.378;0.094;2024-02-26T13:24:34;7.30;79.80
26254;DHT22;53339;51.378;0.094;2024-02-26T13:27:03;7.40;79.40
26254;DHT22;53339;51.378;0.094;2024-02-26T13:29:32;7.40;78.30
26254;DHT22;53339;51.378;0.094;2024-02-26T13:32:00;7.20;78.10
26254;DHT22;53339;51.378;0.094;2024-02-26T13:34:29;7.20;78.70
26254;DHT22;53339;51.378;0.094;2024-02-26T13:36:58;7.20;78.60
26254;DHT22;53339;51.378;0.094;2024-02-26T13:39:27;7.20;78.20
26254;DHT22;53339;51.378;0.094;2024-02-26T13:41:55;7.10;77.90
26254;DHT22;53339;51.378;0.094;2024-02-26T13:44:24;7.10;78.30
26254;DHT22;53339;51.378;0.094;2024-02-26T13:46:52;7.30;77.80
26254;DHT22;53339;51.378;0.094;2024-02-26T13:49:19;7.40;77.20
26254;DHT22;53339;51.378;0.094;2024-02-26T13:51:47;7.60;76.70
26254;DHT22;53339;51.378;0.094;2024-02-26T13:54:15;7.70;77.10
26254;DHT22;53339;51.378;0.094;2024-02-26T13:56:43;7.90;76.50
26254;DHT22;53339;51.378;0.094;2024-02-26T13:59:13;8.00;75.40
26254;DHT22;53339;51.378;0.094;2024-02-26T14:01:41;8.10;74.80
26254;DHT22;53339;51.378;0.094;2024-02-26T14:04:10;8.10;74.70
26254;DHT22;53339;51.378;0.094;2024-02-26T14:06:39;8.10;73.90
26254;DHT22;53339;51.378;0.094;2024-02-26T14:09:07;8.20;73.70
26254;DHT22;53339;51.378;0.094;2024-02-26T14:11:34;8.10;73.60
26254;DHT22;53339;51.378;0.094;2024-02-26T14:14:03;8.00;74.00
26254;DHT22;53339;51.378;0.094;2024-02-26T14:16:30;8.00;74.50
26254;DHT22;53339;51.378;0.094;2024-02-26T14:18:58;8.10;73.90
26254;DHT22;53339;51.378;0.094;2024-02-26T14:21:26;8.10;73.30
26254;DHT22;53339;51.378;0.094;2024-02-26T14:23:55;8.10;73.30
26254;DHT22;53339;51.378;0.094;2024-02-26T14:26:23;8.30;72.70
26254;DHT22;53339;51.378;0.094;2024-02-26T14:28:51;8.40;72.30
26254;DHT22;53339;51.378;0.094;2024-02-26T14:31:19;8.50;71.90
26254;DHT22;53339;51.378;0.094;2024-02-26T14:33:46;8.40;72.70
26254;DHT22;53339;51.378;0.094;2024-02-26T14:36:17;8.40;72.90
26254;DHT22;53339;51.378;0.094;2024-02-26T14:38:45;8.50;71.90
26254;DHT22;53339;51.378;0.094;2024-02-26T14:41:12;8.50;72.20
26254;DHT22;53339;51.378;0.094;2024-02-26T14:43:40;8.50;71.30
26254;DHT22;53339;51.378;0.094;2024-02-26T14:46:10;8.50;71.60
26254;DHT22;53339;51.378;0.094;2024-02-26T14:48:38;8.60;71.10
26254;DHT22;53339;51.378;0.094;2024-02-26T14:51:06;8.40;71.10
26254;DHT22;53339;51.378;0.094;2024-02-26T14:53:34;8.30;71.10
26254;DHT22;53339;51.378;0.094;2024-02-26T14:56:03;8.40;71.20
26254;DHT22;53339;51.378;0.094;2024-02-26T14:58:35;8.80;70.40
26254;DHT22;53339;51.378;0.094;2024-02-26T15:01:04;9.20;69.90
26254;DHT22;53339;51.378;0.094;2024-02-26T15:03:33;9.40;70.20
26254;DHT22;53339;51.378;0.094;2024-02-26T15:06:00;9.40;70.20
26254;DHT22;53339;51.378;0.094;2024-02-26T15:08:28;9.40;70.10
26254;DHT22;53339;51.378;0.094;2024-02-26T15:10:56;9.40;70.00
26254;DHT22;53339;51.378;0.094;2024-02-26T15:13:24;9.30;70.60
26254;DHT22;53339;51.378;0.094;2024-02-26T15:15:53;9.50;71.20
26254;DHT22;53339;51.378;0.094;2024-02-26T15:18:21;9.50;70.50
26254;DHT22;53339;51.378;0.094;2024-02-26T15:20:52;9.50;70.10
26254;DHT22;53339;51.378;0.094;2024-02-26T15:23:21;9.20;69.70
26254;DHT22;53339;51.378;0.094;2024-02-26T15:25:48;9.00;70.20
26254;DHT22;53339;51.378;0.094;2024-02-26T15:28:16;9.10;68.90
26254;DHT22;53339;51.378;0.094;2024-02-26T15:30:44;9.60;69.10
26254;DHT22;53339;51.378;0.094;2024-02-26T15:33:12;10.10;69.10
26254;DHT22;53339;51.378;0.094;2024-02-26T15:35:40;10.70;68.90
26254;DHT22;53339;51.378;0.094;2024-02-26T15:38:12;10.80;66.30
26254;DHT22;53339;51.378;0.094;2024-02-26T15:40:41;10.50;65.50
26254;DHT22;53339;51.378;0.094;2024-02-26T15:43:09;10.00;65.20
26254;DHT22;53339;51.378;0.094;2024-02-26T15:45:41;9.60;67.40
26254;DHT22;53339;51.378;0.094;2024-02-26T15:48:09;9.30;68.60
26254;DHT22;53339;51.378;0.094;2024-02-26T15:50:37;9.00;68.40
26254;DHT22;53339;51.378;0.094;2024-02-26T15:53:08;8.80;67.70
26254;DHT22;53339;51.378;0.094;2024-02-26T15:55:36;8.60;68.90
26254;DHT22;53339;51.378;0.094;2024-02-26T15:58:08;8.50;68.70